Latest METARs, TAFs and NOTAMs for EINN


---------------------------------------------------------------------------
	(OBSERVATIONS)
EINN 260130Z 33010KT CAVOK 10/09 Q1024 NOSIG=
EINN 260100Z 33013KT CAVOK 10/09 Q1023 NOSIG=
EINN 260030Z 34012KT CAVOK 11/09 Q1024 NOSIG=
EINN 260000Z 34012KT CAVOK 11/09 Q1024 NOSIG=
EINN 252330Z 34012KT CAVOK 11/09 Q1024 NOSIG=
EINN 252300Z 34012KT CAVOK 12/09 Q1024 NOSIG=
---------------------------------------------------------------------------
	(FC)
Sorry, FC For EINN Not Found
---------------------------------------------------------------------------
	(TERMINAL AREA FORECAST)
EINN 252300Z 2600/2624 36009KT 9999 FEW020
    TEMPO 2604/2612 BKN012 PROB40
    TEMPO 2604/2609 4000 -RADZ
    BECMG 2607/2610 05012KT PROB40
    TEMPO 2622/2624 -SHRA BKN014=
---------------------------------------------------------------------------
	(NOTAMS)


EINN A1069/18 TRIGGER NOTAM IRELAND AIRAC AMENDMENT NR005 EFFECTIVE
    DATE 24 MAY 2018. INCLUDED IN THIS AMENDMENT IS THE UPDATED
    EINN AD 2.18 ATS COMMUNICATION FACILITIES. 24 MAY 00:00 2018
    UNTIL 07 JUN 23:59 2018. CREATED: 12 APR 15:25 2018

EINN A1628/18 EINN ARRIVALS - CAUTION - SHANNON APPROACH AIRSPACE
    IS A LEVEL BUST HOTSPOT AREA. ENSURE ALTIMETER SET TO HECTOPASCALS(HPA)
    WHEN INSTRUCTED BY SHANNON APPROACH. REF EINN AD 2.22. 25
    MAY 10:00 2018 UNTIL 24 AUG 08:00 2018. CREATED: 25 MAY 10:22
    2018

EINN B0370/18 AIS NOTAM SYSTEM AND FLIGHT PLANNING SYSTEM, IS
    UNAVAILABLE DUE TO ESSENTIAL MAINTENANCE. AIS WILL BE UNABLE
    TO PUBLISH NOTAM OR PROCESS FLIGHT PLANS DURING THIS TIME.
    28 MAY 20:05 2018 UNTIL 28 MAY 20:35 2018 ESTIMATED. CREATED:
    25 MAY 14:27 2018

EINN B1142/15 HOLDING PROCEDURE CHANGED. RATE OF DESCENT IN HOLDING
    PATTERNS AMENDED TO: A STANDARD RATE OF DESCENT OF 1000FT
    PER MIN IN HOLDING PATTERNS WILL BE USED UNLESS OTHERWISE
    INSTRUCTED BY ATC. PILOTS MUST ADVISE ATC IF UNABLE TO COMPLY
    WITH THE STANDARD RATE OF DESCENT. REF AIP EINN AD 2.22 SECTION
    9. 02 OCT 18:07 2015 UNTIL PERM. CREATED: 01 MAY 11:24 2017

EINN V0323/18 [US DOD PROCEDURAL NOTAM] INSTRUMENT APPROACH PROCEDURE
    AMENDMENT ILS OR LOC RWY 24. CHANGE LOC MAP TO SHA VOR/DME.
    INCREASE S-LOC 24** MINIMA TO READ: CAT ABCD 460/1400M 445
    (500-1400M). EDIT NO LIGHT NOTE TO READ: **WHEN ALS INOP,
    INCREASE VIS TO 2100M, RVR NA. INCREASE CIRCLING MINIMA TO
    READ: CAT A 500-2400M 454 (500-2400M), CAT B 540-2400M 494
    (500-2400M), CAT CD UNCHANGED. 26 APR 16:40 2018 UNTIL 22
    JUN 00:01 2018. CREATED: 26 APR 16:40 2018

---------------------------------------------------------------------------